Wardboro, Idaho
Current Conditions -  °F | °C
As of 4:55 AM on Wednesday 28 Jan 2015 (Local Time) from KAFO Reporting Station
Drizzle Drizzle  
Wind Chill: 34°   Ceiling: 3200
Heat Index: 34°   Visibility: 10mi
Dew Point: 32°   Wind: 3mph
Humidity: 93%   Direction: 210°SSW
Pressure: 30.17"   Gusts: NA
Location:  42.3329°N, 111.271°W
Report Text: KAFO 281155Z AUTO 21003KT 10SM DZ SCT026 BKN032 OVC037 01/00 A3017 RMK AO2
Loading
Personal Weather Stations






























Interactive Weather Map New forecast layout! Learn more

10-Day Weather Forecast

Advertisements
Track Severe Weather on mobile